Tiempo atmosférico en la estación meteorológica de Bailén, Jaén (345 m.)



Fecha
DESCASC
Temp. máxima en grados centígrados (hora)
DESCASC
Temp. mínima en grados centígrados (hora)
DESCASC
Temp. media en grados centígrados
DESCASC
Racha de viento máxima en m/sg (hora)
DESCASC
Velocidad máxima media en intervalos de 10 minutos(hora)
DESCASC
Precipitaciones diarias en mm
DESCASC
Precipitaciones de 00:00 a 06:00 en mm
DESCASC
Precipitaciones de 06:00 a 12:00 en mm
DESCASC
Precipitaciones de 12:00 a 18:00 en mm
DESCASC
Precipitaciones de 18:00 a 24:00 en mm
DESCASC
20-09-2018 35 (18:00) 19.3 (07:30) 27.1 3.89 (16:00) 1.67 (21:40) -- -- -- -- --
19-09-2018 34.8 (18:00) 19.2 (07:40) 27 5 (17:10) 2.5 (17:20) -- -- -- -- --
18-09-2018 32.5 (17:00) 19 (08:20) 25.8 7.22 (17:20) 3.33 (17:20) -- -- -- -- --
17-09-2018 31.4 (17:30) 19.6 (07:00) 25.5 9.17 (19:30) 4.44 (19:40) -- -- -- -- --
16-09-2018 33.9 (18:10) 17.9 (00:00) 25.9 5.56 (17:10) 2.22 (14:20) -- -- -- -- --
15-09-2018 30.1 (14:30) 18.2 (00:00) 24.2 6.67 (18:50) 3.61 (18:50) -- -- -- -- --
14-09-2018 32.6 (15:20) 20.6 (00:00) 26.6 8.33 (19:10) 2.78 (19:10) -- -- -- -- --
13-09-2018 36.1 (17:30) 20.6 (00:00) 28.3 6.67 (23:59) 2.78 (17:20) -- -- -- -- --
12-09-2018 33 (15:10) 21 (00:00) 27 4.44 (13:00) 2.22 (23:40) -- -- -- -- --
11-09-2018 33.3 (17:50) 20.6 (00:00) 26.9 8.33 (14:20) 3.61 (15:00) -- -- -- -- --
10-09-2018 33.6 (18:00) 16.9 (00:00) 25.2 7.5 (14:30) 3.33 (02:10) -- -- -- -- --
09-09-2018 31.4 (15:20) 16.2 (00:00) 23.8 8.61 (21:10) 3.89 (21:00) -- -- -- -- --
08-09-2018 28.3 (15:20) 18.9 (00:00) 23.6 6.94 (15:10) 3.61 (19:30) -- -- -- -- --
07-09-2018 32.7 (17:40) 17.9 (00:00) 25.3 5.28 (18:00) 1.67 (14:20) -- -- -- -- --
06-09-2018 31.2 (17:40) 17.2 (00:00) 24.2 4.72 (14:30) 1.67 (14:30) -- -- -- -- --
05-09-2018 29.1 (17:50) 17.7 (00:00) 23.4 6.67 (16:10) 1.94 (19:30) -- -- -- -- --
04-09-2018 31 (17:30) 18.4 (00:00) 24.7 6.67 (18:40) 3.33 (18:00) -- -- -- -- --
03-09-2018 34.2 (17:20) 22 (00:00) 28.1 8.61 (17:30) 3.33 (17:50) -- -- -- -- --
02-09-2018 39 (17:30) 22.7 (00:00) 30.9 3.61 (22:40) 1.67 (08:00) -- -- -- -- --
01-09-2018 40.4 (17:00) 22.1 (00:00) 31.3 6.39 (14:30) 2.22 (16:30) -- -- -- -- --
31-08-2018 39.3 (17:20) 21.6 (00:00) 30.4 5.83 (15:40) 2.22 (16:50) -- -- -- -- --
30-08-2018 36.3 (17:30) 20.1 (00:00) 28.2 4.44 (16:50) 1.67 (12:50) -- -- -- -- --
29-08-2018 36.1 (17:30) 21.8 (00:00) 28.9 6.67 (01:30) 1.94 (15:20) -- -- -- -- --
28-08-2018 37.8 (16:00) 23.9 (00:00) 30.8 6.67 (19:40) 2.78 (01:20) -- -- -- -- --
27-08-2018 41.5 (17:20) 22.5 (00:00) 32 7.22 (21:40) 3.33 (21:30) -- -- -- -- --
26-08-2018 38.8 (16:20) 20.4 (00:00) 29.6 7.22 (16:20) 2.22 (16:00) -- -- -- -- --
25-08-2018 38.6 (17:00) 22.4 (00:00) 30.5 5.28 (16:40) 1.67 (18:40) -- -- -- -- --

Gráficas

Temp. máximas Temp. mínimas Temp. medias Precipitaciones Rachas de viento máximas Velocidades máximas media en intervalos de 10 minutos

Datos horarios

Fecha y hora oficial Temperatura (ºC) Velocidad del viento (km/h) Dirección del viento Racha (km/h) Dirección de racha Precipitación (mm) Presión (hPa) Tendencia (hPa) Humedad (%)
2018-09-23 23:00:00 27.4 4 Nordeste 7 Nordeste -- -- -- 38
2018-09-23 22:00:00 28.7 0 Calma 3 Norte -- -- -- 37
2018-09-23 21:00:00 29.3 0 Calma 2 Oeste -- -- -- 36
2018-09-23 20:00:00 30.6 0 Calma 9 Sudeste -- -- -- 35
2018-09-23 19:00:00 33.1 3 Sudeste 15 Sudeste -- -- -- 34
2018-09-23 18:00:00 36.6 6 Sudeste 19 Sudeste -- -- -- 31
2018-09-23 17:00:00 36.4 9 Este 20 Este -- -- -- 28
2018-09-23 16:00:00 36.1 12 Este 21 Este -- -- -- 29
2018-09-23 15:00:00 36.3 5 Este 18 Este -- -- -- 29
2018-09-23 14:00:00 33.5 5 Este 19 Este -- -- -- 31
2018-09-23 13:00:00 32.2 5 Sudeste 12 Este -- -- -- 35
2018-09-23 12:00:00 28.9 3 Este 10 Este -- -- -- 43
2018-09-23 11:00:00 24.7 3 Sudeste 8 Sudeste -- -- -- 50
2018-09-23 10:00:00 22.2 4 Este 9 Nordeste -- -- -- 58
2018-09-23 09:00:00 20.4 3 Nordeste 6 Norte -- -- -- 62
2018-09-23 08:00:00 20.3 4 Nordeste 6 Nordeste -- -- -- 60
2018-09-23 07:00:00 20.8 0 Calma 2 Nordeste -- -- -- 58
2018-09-23 06:00:00 21 0 Calma 5 Este -- -- -- 59
2018-09-23 05:00:00 22 0 Calma 3 Norte -- -- -- 56
2018-09-23 04:00:00 22.7 0 Calma 7 Oeste -- -- -- 55
2018-09-23 03:00:00 23.4 0 Calma 5 Noroeste -- -- -- 50
2018-09-23 02:00:00 25.4 3 Oeste 9 Noroeste -- -- -- 44
2018-09-23 01:00:00 25.7 0 Calma 10 Sudoeste -- -- -- 42
2018-09-23 00:00:00 26.9 2 Oeste 7 Este -- -- -- 42
2018-09-22 23:00:00 27.3 3 Nordeste 11 Sudeste -- -- -- 41
2018-09-22 22:00:00 29.2 2 Norte 4 Norte -- -- -- 35
2018-09-22 21:00:00 29.8 0 Calma 5 Este -- -- -- 35
2018-09-22 20:00:00 30.7 3 Este 8 Este -- -- -- 34
2018-09-22 19:00:00 33.4 5 Este 16 Este -- -- -- 32
2018-09-22 18:00:00 36.9 8 Este 24 Este -- -- -- 30
2018-09-22 17:00:00 36.1 7 Nordeste 23 Nordeste -- -- -- 32
2018-09-22 16:00:00 34.9 5 Este 16 Este -- -- -- 29
2018-09-22 15:00:00 35.4 2 Sudeste 10 Norte -- -- -- 30
2018-09-22 14:00:00 32.7 3 Este 12 Nordeste -- -- -- 38
2018-09-22 13:00:00 31.7 4 Sudeste 10 Este -- -- -- 37
2018-09-22 12:00:00 29.3 3 Este 10 Este -- -- -- 44
2018-09-22 11:00:00 24.6 3 Sudeste 9 Este -- -- -- 57
2018-09-22 10:00:00 22 2 Este 8 Este -- -- -- 63
2018-09-22 09:00:00 20.9 4 Nordeste 9 Nordeste -- -- -- 65
2018-09-22 08:00:00 20 2 Nordeste 4 Norte -- -- -- 66
2018-09-22 07:00:00 20.7 0 Calma 5 Norte -- -- -- 65
2018-09-22 06:00:00 21.5 3 Nordeste 5 Nordeste -- -- -- 62
2018-09-22 05:00:00 21.7 0 Calma 2 Sudeste -- -- -- 59
2018-09-22 04:00:00 22.7 0 Calma 3 Nordeste -- -- -- 57
2018-09-22 03:00:00 23.3 0 Calma 3 Sudoeste -- -- -- 54
2018-09-22 02:00:00 24.3 0 Calma 4 Noroeste -- -- -- 52
2018-09-22 01:00:00 25.2 0 Calma 7 Sudeste -- -- -- 48
2018-09-22 00:00:00 25.7 0 Calma 4 Este -- -- -- 45
2018-09-21 23:00:00 26.7 0 Calma 5 Sudeste -- -- -- 42
2018-09-21 22:00:00 28 4 Noroeste 8 Oeste -- -- -- 40
2018-09-21 21:00:00 28.1 0 Calma 4 Noroeste -- -- -- 39
2018-09-21 20:00:00 29.3 0 Calma 6 Oeste -- -- -- 39
2018-09-21 19:00:00 31.6 0 Calma 7 Noroeste -- -- -- 36
2018-09-21 18:00:00 34.5 2 Sur 16 Sudeste -- -- -- 32
2018-09-21 17:00:00 33.9 4 Nordeste 13 Sudeste -- -- -- 35
2018-09-21 16:00:00 33.2 2 Sudoeste 9 Sur -- -- -- 36
2018-09-21 15:00:00 32.6 4 Norte 9 Norte -- -- -- 39
2018-09-21 14:00:00 30.3 2 Sur 9 Este -- -- -- 46
2018-09-21 13:00:00 29.2 3 Nordeste 9 Este -- -- -- 52
2018-09-21 12:00:00 26.9 2 Sur 6 Sudeste -- -- -- 57
2018-09-21 11:00:00 23.5 0 Calma 9 Este -- -- -- 68
2018-09-21 10:00:00 21.6 3 Sudeste 8 Sudeste -- -- -- 74
2018-09-21 09:00:00 20 0 Calma 2 Sudeste -- -- -- 80
2018-09-21 08:00:00 19.8 0 Calma 3 Sudeste -- -- -- 77
2018-09-21 07:00:00 20.7 0 Calma 5 Oeste -- -- -- 76
2018-09-21 06:00:00 21.3 0 Calma 6 Noroeste -- -- -- 72
2018-09-21 05:00:00 21.8 0 Calma 6 Oeste -- -- -- 67
2018-09-21 04:00:00 22.4 2 Sudoeste 9 Oeste -- -- -- 64
2018-09-21 03:00:00 22.8 2 Oeste 6 Noroeste -- -- -- 61
2018-09-21 02:00:00 23.6 2 Oeste 6 Sudoeste -- -- -- 57
2018-09-21 01:00:00 23.8 0 Calma 8 Sudoeste -- -- -- 56
2018-09-21 00:00:00 24.6 0 Calma 4 Sudoeste -- -- -- 53
2018-09-20 23:00:00 25.8 0 Calma 10 Oeste -- -- -- 51
2018-09-20 22:00:00 27.2 4 Oeste 11 Oeste -- -- -- 47
2018-09-20 21:00:00 28.1 3 Oeste 10 Sudoeste -- -- -- 46
2018-09-20 20:00:00 29.6 2 Sudoeste 13 Oeste -- -- -- 42
2018-09-20 19:00:00 32 4 Sudoeste 12 Oeste -- -- -- 33
2018-09-20 18:00:00 35 3 Sur 9 Oeste -- -- -- 28
2018-09-20 17:00:00 34.1 3 Sur 12 Este -- -- -- 31
2018-09-20 16:00:00 33.6 4 Sur 14 Sudeste -- -- -- 31
2018-09-20 15:00:00 33.2 3 Sudeste 10 Este -- -- -- 33
2018-09-20 14:00:00 30.5 2 Sur 12 Este -- -- -- 42
2018-09-20 13:00:00 29.7 4 Sur 11 Este -- -- -- 47
2018-09-20 12:00:00 27.4 3 Sur 10 Este -- -- -- 58
2018-09-20 11:00:00 23.8 0 Calma 5 Este -- -- -- 66
2018-09-20 10:00:00 21.5 3 Este 6 Este -- -- -- 73
2018-09-20 09:00:00 20.1 4 Nordeste 10 Nordeste -- -- -- 78
2018-09-20 08:00:00 19.4 3 Nordeste 5 Este -- -- -- 76
2018-09-20 07:00:00 19.9 0 Calma 3 Sudoeste -- -- -- 75
2018-09-20 06:00:00 21 0 Calma 3 Nordeste -- -- -- 71
2018-09-20 05:00:00 20.8 0 Calma 4 Oeste -- -- -- 70
2018-09-20 04:00:00 21.5 0 Calma 8 Nordeste -- -- -- 67
2018-09-20 03:00:00 22.6 5 Nordeste 10 Nordeste -- -- -- 64
2018-09-20 02:00:00 23 0 Calma 8 Norte -- -- -- 63
2018-09-20 01:00:00 23.7 5 Nordeste 8 Nordeste -- -- -- 58
2018-09-20 00:00:00 24.2 3 Nordeste 4 Norte -- -- -- 56
2018-09-19 23:00:00 25.2 0 Calma 12 Sudoeste -- -- -- 53
2018-09-19 22:00:00 25.6 0 Calma 8 Sur -- -- -- 52
2018-09-19 21:00:00 27.3 2 Sudoeste 13 Sudeste -- -- -- 50
2018-09-19 20:00:00 29.6 3 Nordeste 13 Nordeste -- -- -- 41
2018-09-19 19:00:00 32.3 7 Norte 16 Nordeste -- -- -- 39
2018-09-19 18:00:00 34.8 6 Nordeste 18 Norte -- -- -- 33
2018-09-19 17:00:00 31.3 8 Norte 15 Norte -- -- -- 37
2018-09-19 16:00:00 33.9 6 Este 12 Este -- -- -- 34
2018-09-19 15:00:00 32.5 3 Sudoeste 10 Sudeste -- -- -- 39
2018-09-19 14:00:00 30.5 3 Sur 10 Sudeste -- -- -- 44
2018-09-19 13:00:00 29.2 3 Noroeste 10 Sudeste -- -- -- 51
2018-09-19 12:00:00 27.2 3 Sudeste 10 Sudeste -- -- -- 58
2018-09-19 11:00:00 24 6 Este 12 Este -- -- -- 67
2018-09-19 10:00:00 21.3 3 Sudeste 9 Nordeste -- -- -- 77
2018-09-19 09:00:00 19.8 5 Nordeste 10 Nordeste -- -- -- 81
2018-09-19 08:00:00 19.2 0 Calma 8 Este -- -- -- 81
2018-09-19 07:00:00 19.9 0 Calma 5 Oeste -- -- -- 78
2018-09-19 06:00:00 20 0 Calma 6 Nordeste -- -- -- 78
2018-09-19 05:00:00 20.8 0 Calma 8 Este -- -- -- 76
2018-09-19 04:00:00 21.2 0 Calma 10 Nordeste -- -- -- 76
2018-09-19 03:00:00 21.4 3 Nordeste 7 Este -- -- -- 76
2018-09-19 02:00:00 22.6 2 Sudeste 11 Nordeste -- -- -- 72
2018-09-19 01:00:00 22.6 5 Norte 9 Norte -- -- -- 70
2018-09-19 00:00:00 23 0 Calma 3 Sudeste -- -- -- 66
2018-09-18 23:00:00 24 3 Este 6 Nordeste -- -- -- 63
2018-09-18 22:00:00 24.7 0 Calma 6 Noroeste -- -- -- 61
2018-09-18 21:00:00 25.9 0 Calma 6 Nordeste -- -- -- 60
2018-09-18 20:00:00 27.8 3 Noroeste 10 Noroeste -- -- -- 52
2018-09-18 19:00:00 28.4 4 Noroeste 14 Noroeste -- -- -- 54
2018-09-18 18:00:00 28.9 5 Norte 26 Norte -- -- -- 53
2018-09-18 17:00:00 32.5 4 Noroeste 12 Oeste -- -- -- 42
2018-09-18 16:00:00 31.7 4 Oeste 12 Oeste -- -- -- 44
2018-09-18 15:00:00 31.3 3 Sudoeste 14 Oeste -- -- -- 48
2018-09-18 14:00:00 29.3 4 Sudoeste 13 Oeste -- -- -- 54
2018-09-18 13:00:00 28.3 4 Noroeste 11 Noroeste -- -- -- 56
2018-09-18 12:00:00 26 3 Norte 8 Este -- -- -- 64
2018-09-18 11:00:00 23 2 Sur 8 Sudeste -- -- -- 72
2018-09-18 10:00:00 21 3 Este 8 Nordeste -- -- -- 80
2018-09-18 09:00:00 19.5 4 Este 6 Este -- -- -- 84
2018-09-18 08:00:00 19.2 2 Este 7 Nordeste -- -- -- 84
2018-09-18 07:00:00 19.2 4 Nordeste 9 Nordeste -- -- -- 82
2018-09-18 06:00:00 19.2 0 Calma 6 Nordeste -- -- -- 82
2018-09-18 05:00:00 19.9 3 Nordeste 9 Nordeste -- -- -- 80
2018-09-18 04:00:00 20.1 4 Nordeste 7 Noroeste -- -- -- 79
2018-09-18 03:00:00 20.2 0 Calma 10 Norte -- -- -- 77
2018-09-18 02:00:00 20.4 4 Nordeste 10 Nordeste -- -- -- 78
2018-09-18 01:00:00 20.9 4 Este 12 Norte -- -- -- 75
2018-09-18 00:00:00 20.9 5 Nordeste 14 Norte -- -- -- 75
2018-09-17 23:00:00 21.1 7 Norte 15 Norte -- -- -- 72
2018-09-17 22:00:00 20.8 3 Nordeste 12 Nordeste -- -- -- 78
2018-09-17 21:00:00 21.2 2 Nordeste 26 Nordeste -- -- -- 75
2018-09-17 20:00:00 22 12 Nordeste 33 Nordeste -- -- -- 77
2018-09-17 19:00:00 25.5 6 Oeste 22 Oeste -- -- -- 59
2018-09-17 18:00:00 29.7 3 Nordeste 12 Este -- -- -- 49
2018-09-17 17:00:00 29.4 3 Sur 13 Sudeste -- -- -- 48
2018-09-17 16:00:00 28.3 0 Calma 7 Oeste -- -- -- 51
2018-09-17 15:00:00 29.5 2 Sudoeste 13 Sur -- -- -- 50
2018-09-17 14:00:00 29 3 Sur 16 Sudeste -- -- -- 51
2018-09-17 13:00:00 29.1 3 Sudeste 11 Sudeste -- -- -- 51
2018-09-17 12:00:00 26.3 2 Sur 11 Este -- -- -- 59
2018-09-17 11:00:00 24.1 4 Este 10 Este -- -- -- 64
2018-09-17 10:00:00 21.8 5 Este 12 Este -- -- -- 69
2018-09-17 09:00:00 20.2 0 Calma 6 Nordeste -- -- -- 73
2018-09-17 08:00:00 19.7 0 Calma 5 Norte -- -- -- 74
2018-09-17 07:00:00 19.6 0 Calma 4 Oeste -- -- -- 73
2018-09-17 06:00:00 20.4 0 Calma 5 Oeste -- -- -- 70
2018-09-17 05:00:00 20.8 0 Calma 4 Sudeste -- -- -- 69
2018-09-17 04:00:00 21.7 0 Calma 3 Oeste -- -- -- 65
2018-09-17 03:00:00 22.1 0 Calma 3 Oeste -- -- -- 63
2018-09-17 02:00:00 22.8 2 Oeste 5 Sudoeste -- -- -- 62
2018-09-17 01:00:00 23.6 2 Oeste 6 Oeste -- -- -- 59
2018-09-17 00:00:00 24.3 0 Calma 7 Sudeste -- -- -- 60
2018-09-16 23:00:00 25 0 Calma 3 Este -- -- -- 52
2018-09-16 22:00:00 26.2 0 Calma 2 Norte -- -- -- 48
2018-09-16 21:00:00 26.9 0 Calma 2 Sudoeste -- -- -- 46
2018-09-16 20:00:00 28.6 0 Calma 4 Sur -- -- -- 44
2018-09-16 19:00:00 31.3 2 Sudoeste 10 Este -- -- -- 38
2018-09-16 18:00:00 33.6 5 Sudeste 20 Este -- -- -- 35
2018-09-16 17:00:00 32.4 5 Este 19 Este -- -- -- 38
2018-09-16 16:00:00 31.8 4 Sur 13 Sudeste -- -- -- 39
2018-09-16 15:00:00 31.7 5 Nordeste 16 Este -- -- -- 43
2018-09-16 14:00:00 28.6 4 Sur 14 Sudeste -- -- -- 49
2018-09-16 13:00:00 27.6 4 Oeste 12 Sudeste -- -- -- 54
2018-09-16 12:00:00 26.1 3 Nordeste 10 Este -- -- -- 60
2018-09-16 11:00:00 22.8 5 Este 12 Este -- -- -- 74
2018-09-16 10:00:00 20.4 4 Nordeste 9 Norte -- -- -- 83
2018-09-16 09:00:00 18.7 3 Nordeste 5 Nordeste -- -- -- 90
2018-09-16 08:00:00 17.9 2 Sudeste 9 Nordeste -- -- -- 89
2018-09-16 07:00:00 18.4 5 Nordeste 9 Nordeste -- -- -- 88
2018-09-16 06:00:00 18.6 2 Sudeste 6 Noroeste -- -- -- 88
2018-09-16 05:00:00 18.7 3 Sudeste 6 Sudeste -- -- -- 86
2018-09-16 04:00:00 19.1 0 Calma 2 Sudeste -- -- -- 87
2018-09-16 03:00:00 19.6 0 Calma 4 Sudeste -- -- -- 84
2018-09-16 02:00:00 20 0 Calma 4 Nordeste -- -- -- 82
2018-09-16 01:00:00 20.8 0 Calma 6 Oeste -- -- -- 79
2018-09-16 00:00:00 21 0 Calma 4 Este -- -- -- 79
2018-09-15 23:00:00 21.9 0 Calma 8 Noroeste -- -- -- 75
2018-09-15 22:00:00 22.2 0 Calma 6 Este -- -- -- 75
2018-09-15 21:00:00 23.2 0 Calma 7 Nordeste -- -- -- 69
2018-09-15 20:00:00 23.5 0 Calma 17 Sudeste -- -- -- 68
2018-09-15 19:00:00 26.1 9 Sudeste 24 Sudeste -- -- -- 56
2018-09-15 18:00:00 28.2 6 Sudeste 19 Sudeste -- -- -- 50
2018-09-15 17:00:00 27.6 4 Sudeste 14 Sudeste -- -- -- 50
2018-09-15 16:00:00 27.3 4 Sudeste 23 Sudeste -- -- -- 53
2018-09-15 15:00:00 29.2 8 Sudeste 22 Sudeste -- -- -- 47
2018-09-15 14:00:00 28.8 6 Sudeste 14 Este -- -- -- 50
2018-09-15 13:00:00 28.6 5 Este 15 Este -- -- -- 50
2018-09-15 12:00:00 26.7 6 Sudeste 17 Sudeste -- -- -- 54
2018-09-15 11:00:00 22.9 5 Este 10 Este -- -- -- 66
2018-09-15 10:00:00 20.5 5 Este 11 Este -- -- -- 74
2018-09-15 09:00:00 18.9 4 Nordeste 8 Nordeste -- -- -- 79
2018-09-15 08:00:00 18.3 4 Nordeste 7 Nordeste -- -- -- 81
2018-09-15 07:00:00 18.4 3 Este 9 Este -- -- -- 81
2018-09-15 06:00:00 18.9 4 Este 11 Nordeste -- -- -- 79
2018-09-15 05:00:00 19.3 0 Calma 9 Noroeste -- -- -- 79
2018-09-15 04:00:00 19.7 3 Oeste 7 Sudoeste -- -- -- 76
2018-09-15 03:00:00 19.6 0 Calma 2 Sudoeste -- -- -- 78
2018-09-15 02:00:00 20.8 2 Sudoeste 10 Noroeste -- -- -- 76
2018-09-15 01:00:00 21.4 0 Calma 5 Norte -- -- -- 72
2018-09-15 00:00:00 22.4 0 Calma 5 Norte -- -- -- 68
2018-09-14 23:00:00 22.6 0 Calma 7 Oeste -- -- -- 66
2018-09-14 22:00:00 22.3 0 Calma 9 Sudoeste -- -- -- 68
2018-09-14 21:00:00 23.2 2 Sudoeste 7 Oeste -- -- -- 62
2018-09-14 20:00:00 23.6 0 Calma 30 Noroeste -- -- -- 61
2018-09-14 19:00:00 25.5 9 Noroeste 19 Norte -- -- -- 57
2018-09-14 18:00:00 27.3 5 Sudoeste 22 Oeste -- -- -- 50
2018-09-14 17:00:00 29 7 Sudoeste 20 Sudoeste -- -- -- 50
2018-09-14 16:00:00 31.2 5 Sudoeste 18 Sudoeste -- -- -- 46
2018-09-14 15:00:00 32 3 Sudeste 11 Sudoeste -- -- -- 44
2018-09-14 14:00:00 30.3 3 Sudoeste 10 Noroeste -- -- -- 47
2018-09-14 13:00:00 28.6 3 Este 10 Este -- -- -- 52
2018-09-14 12:00:00 26.7 2 Nordeste 9 Sudeste -- -- -- 60
2018-09-14 11:00:00 24.1 3 Nordeste 9 Este -- -- -- 67
2018-09-14 10:00:00 22.4 0 Calma 5 Este -- -- -- 73
2018-09-14 09:00:00 21.1 0 Calma 4 Noroeste -- -- -- 78
2018-09-14 08:00:00 20.7 0 Calma 4 Oeste -- -- -- 78
2018-09-14 07:00:00 21.1 0 Calma 9 Oeste -- -- -- 77
2018-09-14 06:00:00 21.9 2 Sudoeste 11 Oeste -- -- -- 74
2018-09-14 05:00:00 22.9 4 Sudoeste 13 Noroeste -- -- -- 72
2018-09-14 04:00:00 23.4 2 Sudoeste 12 Sudoeste -- -- -- 70
2018-09-14 03:00:00 23.7 3 Sudoeste 14 Oeste -- -- -- 69
2018-09-14 02:00:00 24.4 4 Sudoeste 18 Sudoeste -- -- -- 64
2018-09-14 01:00:00 25.1 6 Sudoeste 24 Oeste -- -- -- 61
2018-09-14 00:00:00 26 7 Sudoeste 24 Sudoeste -- -- -- 58
2018-09-13 23:00:00 27.4 7 Sudoeste 23 Sudoeste -- -- -- 54
2018-09-13 22:00:00 28.4 0 Calma 8 Oeste -- -- -- 38
2018-09-13 21:00:00 29.4 2 Oeste 8 Oeste -- -- -- 37
2018-09-13 20:00:00 30.7 0 Calma 11 Nordeste -- -- -- 33
2018-09-13 19:00:00 33.8 3 Sudeste 9 Oeste -- -- -- 28
2018-09-13 18:00:00 35.9 4 Noroeste 16 Nordeste -- -- -- 25
2018-09-13 17:00:00 35.3 3 Nordeste 18 Este -- -- -- 28
2018-09-13 16:00:00 34.7 2 Sur 14 Este -- -- -- 30
2018-09-13 15:00:00 34.2 6 Norte 15 Noroeste -- -- -- 33
2018-09-13 14:00:00 30.6 3 Este 12 Sudeste -- -- -- 43
2018-09-13 13:00:00 29.4 3 Sur 12 Sudeste -- -- -- 48
2018-09-13 12:00:00 27.5 5 Este 12 Este -- -- -- 57
2018-09-13 11:00:00 24 2 Sur 9 Sudeste -- -- -- 68
2018-09-13 10:00:00 22.2 0 Calma 7 Sudoeste -- -- -- 73
2018-09-13 09:00:00 21 0 Calma 4 Nordeste -- -- -- 77
2018-09-13 08:00:00 20.7 0 Calma 5 Oeste -- -- -- 77
2018-09-13 07:00:00 21.5 2 Oeste 7 Oeste -- -- -- 74
2018-09-13 06:00:00 22.2 0 Calma 8 Oeste -- -- -- 70
2018-09-13 05:00:00 23.1 0 Calma 10 Oeste -- -- -- 65
2018-09-13 04:00:00 23.2 0 Calma 10 Oeste -- -- -- 65
2018-09-13 03:00:00 23.8 2 Oeste 8 Sudoeste -- -- -- 63
2018-09-13 02:00:00 24.9 0 Calma 10 Oeste -- -- -- 58
2018-09-13 01:00:00 25.7 0 Calma 6 Sudoeste -- -- -- 54
2018-09-13 00:00:00 26.4 3 Norte 14 Norte -- -- -- 51
2018-09-12 23:00:00 27.5 4 Norte 12 Oeste -- -- -- 49
2018-09-12 22:00:00 27.3 3 Oeste 5 Oeste -- -- -- 47
2018-09-12 21:00:00 28.4 0 Calma 7 Noroeste -- -- -- 44
2018-09-12 20:00:00 30 3 Sudoeste 11 Oeste -- -- -- 43
2018-09-12 19:00:00 30.8 3 Sudoeste 13 Sudoeste -- -- -- 41
2018-09-12 18:00:00 31.5 2 Sur 10 Sudeste -- -- -- 43
2018-09-12 17:00:00 32.5 0 Calma 10 Sudeste -- -- -- 39
2018-09-12 16:00:00 32.4 3 Sudoeste 12 Oeste -- -- -- 40
2018-09-12 15:00:00 32.9 3 Sur 9 Sudoeste -- -- -- 42
2018-09-12 14:00:00 31.3 3 Sudeste 15 Este -- -- -- 47
2018-09-12 13:00:00 30 4 Nordeste 16 Sudeste -- -- -- 50
2018-09-12 12:00:00 27.8 0 Calma 9 Sudeste -- -- -- 59
2018-09-12 11:00:00 24.7 2 Sur 7 Nordeste -- -- -- 64
2018-09-12 10:00:00 22.8 4 Este 8 Este -- -- -- 73
2018-09-12 09:00:00 21.9 3 Nordeste 6 Norte -- -- -- 75
2018-09-12 08:00:00 21.1 4 Nordeste 6 Nordeste -- -- -- 76
2018-09-12 07:00:00 21.4 3 Nordeste 9 Nordeste -- -- -- 74
2018-09-12 06:00:00 21.8 4 Este 10 Nordeste -- -- -- 74
2018-09-12 05:00:00 21.8 5 Norte 8 Norte -- -- -- 73
2018-09-12 04:00:00 22.1 0 Calma 4 Nordeste -- -- -- 71
2018-09-12 03:00:00 22.7 3 Este 8 Sudeste -- -- -- 69
2018-09-12 02:00:00 23.3 4 Este 10 Nordeste -- -- -- 67
2018-09-12 01:00:00 23.6 4 Este 9 Nordeste -- -- -- 66
2018-09-12 00:00:00 24.5 6 Nordeste 11 Nordeste -- -- -- 63
2018-09-11 23:00:00 25.1 4 Nordeste 11 Nordeste -- -- -- 61
2018-09-11 22:00:00 26.1 5 Este 11 Este -- -- -- 57
2018-09-11 21:00:00 27.3 6 Este 19 Sudeste -- -- -- 54
2018-09-11 20:00:00 29.1 11 Sudeste 21 Sudeste -- -- -- 48
2018-09-11 19:00:00 30.8 10 Este 21 Sudeste -- -- -- 44
2018-09-11 18:00:00 33 8 Sudeste 21 Este -- -- -- 41
2018-09-11 17:00:00 32.3 4 Sudeste 25 Este -- -- -- 42
2018-09-11 16:00:00 32.2 9 Este 26 Sudeste -- -- -- 40
2018-09-11 15:00:00 32.4 13 Sudeste 30 Este -- -- -- 40
2018-09-11 14:00:00 30.6 8 Este 21 Sudeste -- -- -- 42
2018-09-11 13:00:00 29.9 8 Este 20 Sudeste -- -- -- 42
2018-09-11 12:00:00 28.1 6 Este 16 Este -- -- -- 49
2018-09-11 11:00:00 24.6 7 Este 18 Nordeste -- -- -- 58
2018-09-11 10:00:00 22.5 10 Nordeste 22 Nordeste -- -- -- 64
2018-09-11 09:00:00 20.9 10 Nordeste 21 Nordeste -- -- -- 68
2018-09-11 08:00:00 20.7 10 Nordeste 22 Nordeste -- -- -- 69
2018-09-11 07:00:00 21 10 Nordeste 18 Nordeste -- -- -- 69
2018-09-11 06:00:00 21.4 8 Nordeste 17 Norte -- -- -- 69
2018-09-11 05:00:00 21.7 9 Nordeste 17 Nordeste -- -- -- 68
2018-09-11 04:00:00 22.3 8 Nordeste 16 Nordeste -- -- -- 67
2018-09-11 03:00:00 23.1 7 Nordeste 18 Nordeste -- -- -- 67
2018-09-11 02:00:00 23.5 7 Nordeste 15 Este -- -- -- 64
2018-09-11 01:00:00 23.8 8 Nordeste 17 Nordeste -- -- -- 59
2018-09-11 00:00:00 24.1 7 Nordeste 14 Nordeste -- -- -- 55
2018-09-10 23:00:00 24.8 6 Este 16 Nordeste -- -- -- 52
2018-09-10 22:00:00 26.1 8 Nordeste 18 Nordeste -- -- -- 49
2018-09-10 21:00:00 27.3 8 Nordeste 15 Nordeste -- -- -- 46
2018-09-10 20:00:00 28.2 5 Este 14 Este -- -- -- 37
2018-09-10 19:00:00 30.4 3 Este 18 Este -- -- -- 35
2018-09-10 18:00:00 33.6 7 Este 15 Este -- -- -- 31
2018-09-10 17:00:00 32.8 8 Nordeste 21 Nordeste -- -- -- 33
2018-09-10 16:00:00 32.2 9 Este 22 Sudeste -- -- -- 34
2018-09-10 15:00:00 31.9 8 Nordeste 27 Nordeste -- -- -- 36
2018-09-10 14:00:00 29.5 11 Nordeste 25 Este -- -- -- 45
2018-09-10 13:00:00 28.4 9 Este 23 Sudeste -- -- -- 47
2018-09-10 12:00:00 25.9 9 Este 19 Este -- -- -- 52
2018-09-10 11:00:00 22 10 Este 20 Este -- -- -- 63
2018-09-10 10:00:00 18.7 5 Nordeste 13 Norte -- -- -- 75
2018-09-10 09:00:00 17.2 3 Sudeste 13 Nordeste -- -- -- 79
2018-09-10 08:00:00 16.9 6 Nordeste 13 Nordeste -- -- -- 79
2018-09-10 07:00:00 17.4 2 Nordeste 10 Norte -- -- -- 79
2018-09-10 06:00:00 17.9 5 Nordeste 9 Norte -- -- -- 78
2018-09-10 05:00:00 18.5 5 Nordeste 14 Nordeste -- -- -- 76
2018-09-10 04:00:00 18.9 6 Este 13 Este -- -- -- 75
2018-09-10 03:00:00 19.8 7 Este 23 Sudeste -- -- -- 70
2018-09-10 02:00:00 20 9 Este 17 Este -- -- -- 69
2018-09-10 01:00:00 20.5 9 Nordeste 18 Nordeste -- -- -- 66
2018-09-10 00:00:00 21 2 Nordeste 14 Nordeste -- -- -- 60
2018-09-09 23:00:00 22.1 8 Nordeste 25 Norte -- -- -- 54
2018-09-09 22:00:00 22.2 11 Norte 31 Norte -- -- -- 55
2018-09-09 21:00:00 23.3 14 Norte 30 Noroeste -- -- -- 51
2018-09-09 20:00:00 25.1 0 Calma 6 Sudeste -- -- -- 53
2018-09-09 19:00:00 27.2 0 Calma 18 Sudeste -- -- -- 48
2018-09-09 18:00:00 30.1 8 Sudeste 17 Sudeste -- -- -- 42
2018-09-09 17:00:00 27.4 4 Sudeste 18 Sudeste -- -- -- 50
2018-09-09 16:00:00 28.6 2 Sur 18 Este -- -- -- 49
2018-09-09 15:00:00 30.6 6 Este 17 Sudeste -- -- -- 39
2018-09-09 14:00:00 27.7 6 Este 14 Este -- -- -- 49
2018-09-09 13:00:00 26.3 6 Nordeste 15 Este -- -- -- 55
2018-09-09 12:00:00 22.7 5 Este 15 Este -- -- -- 65
2018-09-09 11:00:00 20.1 3 Este 9 Este -- -- -- 77
2018-09-09 10:00:00 18.7 4 Sudeste 10 Sudeste -- -- -- 82
2018-09-09 09:00:00 16.7 3 Nordeste 8 Nordeste -- -- -- 90
2018-09-09 08:00:00 16.4 0 Calma 11 Nordeste -- -- -- 89
2018-09-09 07:00:00 16.7 2 Nordeste 9 Nordeste -- -- -- 88
2018-09-09 06:00:00 17.3 5 Nordeste 10 Norte -- -- -- 86
2018-09-09 05:00:00 17.2 3 Nordeste 10 Este -- -- -- 88
2018-09-09 04:00:00 17.7 4 Este 11 Nordeste -- -- -- 87
2018-09-09 03:00:00 18.6 5 Nordeste 12 Nordeste -- -- -- 82
2018-09-09 02:00:00 18.3 2 Nordeste 6 Sudeste -- -- -- 87
2018-09-09 01:00:00 18.3 0 Calma 13 Nordeste -- -- -- 86
2018-09-09 00:00:00 18.9 5 Norte 13 Noroeste -- -- -- 83
2018-09-08 23:00:00 19 7 Nordeste 13 Nordeste -- -- -- 85
2018-09-08 22:00:00 19.4 4 Este 11 Este -- -- -- 80
2018-09-08 21:00:00 19.3 0 Calma 10 Sudeste -- -- -- 80
2018-09-08 20:00:00 20.9 3 Sudeste 23 Sudeste -- -- -- 81
2018-09-08 19:00:00 20.9 11 Nordeste 20 Este -- -- -- 81
2018-09-08 18:00:00 21.5 5 Nordeste 19 Este -- -- -- 78
2018-09-08 17:00:00 22.3 8 Este 21 Nordeste -- -- -- 73
2018-09-08 16:00:00 26.5 12 Nordeste 25 Nordeste -- -- -- 48
2018-09-08 15:00:00 28.1 10 Nordeste 21 Nordeste -- -- -- 47
2018-09-08 14:00:00 24.8 0 Calma 15 Nordeste -- -- -- 56
2018-09-08 13:00:00 24 2 Este 13 Sudeste -- -- -- 59
2018-09-08 12:00:00 22.6 7 Sudeste 17 Este -- -- -- 66
2018-09-08 11:00:00 20.2 7 Nordeste 17 Nordeste -- -- -- 81
2018-09-08 10:00:00 20.3 5 Este 14 Nordeste -- -- -- 67
2018-09-08 09:00:00 19.3 8 Nordeste 14 Nordeste -- -- -- 68
2018-09-08 08:00:00 19.1 0 Calma 4 Noroeste -- -- -- 67
2018-09-08 07:00:00 19.5 0 Calma 14 Sudoeste -- -- -- 68
2018-09-08 06:00:00 19.9 2 Sudoeste 8 Sudoeste -- -- -- 66
2018-09-08 05:00:00 20.8 3 Sudoeste 13 Oeste -- -- -- 62
2018-09-08 04:00:00 21.7 3 Oeste 13 Oeste -- -- -- 58
2018-09-08 03:00:00 22.2 2 Sudoeste 11 Sudoeste -- -- -- 53
2018-09-08 02:00:00 22.7 0 Calma 4 Oeste -- -- -- 49
2018-09-08 01:00:00 23.4 0 Calma 10 Nordeste -- -- -- 47
2018-09-08 00:00:00 24 0 Calma 2 Sudeste -- -- -- 47
2018-09-07 23:00:00 24.9 0 Calma 6 Noroeste -- -- -- 44
2018-09-07 22:00:00 26.3 4 Oeste 9 Oeste -- -- -- 40
2018-09-07 21:00:00 26.7 0 Calma 6 Noroeste -- -- -- 40
2018-09-07 20:00:00 28.9 2 Sudoeste 15 Oeste -- -- -- 35
2018-09-07 19:00:00 30.6 3 Sudoeste 15 Noroeste -- -- -- 33
2018-09-07 18:00:00 32.7 6 Oeste 19 Noroeste -- -- -- 32
2018-09-07 17:00:00 32.2 3 Sudoeste 15 Oeste -- -- -- 31
2018-09-07 16:00:00 31.9 5 Sudoeste 17 Oeste -- -- -- 33
2018-09-07 15:00:00 31.4 5 Sudoeste 15 Sudoeste -- -- -- 33
2018-09-07 14:00:00 29.1 5 Oeste 15 Oeste -- -- -- 34
2018-09-07 13:00:00 27.5 4 Nordeste 12 Sudeste -- -- -- 52
2018-09-07 12:00:00 24.6 3 Sudeste 10 Sudeste -- -- -- 59
2018-09-07 11:00:00 21.3 3 Nordeste 9 Este -- -- -- 72
2018-09-07 10:00:00 19.2 0 Calma 8 Noroeste -- -- -- 78
2018-09-07 09:00:00 18.3 0 Calma 7 Sudoeste -- -- -- 81
2018-09-07 08:00:00 18.1 0 Calma 5 Noroeste -- -- -- 79
2018-09-07 07:00:00 18.7 0 Calma 7 Oeste -- -- -- 76
2018-09-07 06:00:00 19.5 0 Calma 11 Oeste -- -- -- 73
2018-09-07 05:00:00 20.4 2 Sudoeste 13 Oeste -- -- -- 69
2018-09-07 04:00:00 20.8 2 Oeste 9 Oeste -- -- -- 67
2018-09-07 03:00:00 21.8 2 Sudoeste 13 Oeste -- -- -- 63
2018-09-07 02:00:00 22.9 3 Sudoeste 16 Oeste -- -- -- 58
2018-09-07 01:00:00 23.6 5 Sudoeste 15 Sudoeste -- -- -- 51
2018-09-07 00:00:00 23.7 3 Oeste 8 Oeste -- -- -- 47
2018-09-06 23:00:00 24 3 Oeste 8 Sudoeste -- -- -- 45
2018-09-06 22:00:00 24.6 2 Sudoeste 8 Sudoeste -- -- -- 43
2018-09-06 21:00:00 25.5 0 Calma 8 Sudoeste -- -- -- 45
2018-09-06 20:00:00 27.7 2 Sudoeste 10 Oeste -- -- -- 40
2018-09-06 19:00:00 29.4 3 Sudoeste 11 Sur -- -- -- 38
2018-09-06 18:00:00 31.1 3 Sudoeste 13 Este -- -- -- 35
2018-09-06 17:00:00 30.7 3 Sudoeste 9 Noroeste -- -- -- 35
2018-09-06 16:00:00 30.1 5 Oeste 13 Este -- -- -- 36
2018-09-06 15:00:00 29.8 3 Sudoeste 17 Sudeste -- -- -- 38
2018-09-06 14:00:00 27.7 3 Sudeste 14 Sudeste -- -- -- 48
2018-09-06 13:00:00 26.3 3 Este 9 Nordeste -- -- -- 53
2018-09-06 12:00:00 23.6 4 Este 8 Nordeste -- -- -- 65
2018-09-06 11:00:00 20.6 0 Calma 10 Oeste -- -- -- 74
2018-09-06 10:00:00 19 4 Oeste 10 Noroeste -- -- -- 80
2018-09-06 09:00:00 17.9 0 Calma 12 Noroeste -- -- -- 84
2018-09-06 08:00:00 17.3 3 Oeste 6 Oeste -- -- -- 84
2018-09-06 07:00:00 17.5 0 Calma 8 Sudoeste -- -- -- 80
2018-09-06 06:00:00 18.1 0 Calma 6 Oeste -- -- -- 76
2018-09-06 05:00:00 18.9 0 Calma 11 Sudoeste -- -- -- 74
2018-09-06 04:00:00 19.8 2 Sur 8 Sudoeste -- -- -- 70
2018-09-06 03:00:00 20.6 3 Oeste 13 Sudoeste -- -- -- 67
2018-09-06 02:00:00 21 3 Oeste 13 Sudoeste -- -- -- 63
2018-09-06 01:00:00 21.8 3 Sudoeste 14 Sudoeste -- -- -- 58
2018-09-06 00:00:00 21.8 2 Sudoeste 9 Noroeste -- -- -- 55
2018-09-05 23:00:00 22.7 4 Oeste 9 Sudoeste -- -- -- 51
2018-09-05 22:00:00 23.9 2 Sudoeste 15 Oeste -- -- -- 50
2018-09-05 21:00:00 25.1 4 Sudoeste 21 Oeste -- -- -- 48
2018-09-05 20:00:00 26.5 5 Sudoeste 23 Oeste -- -- -- 43
2018-09-05 19:00:00 27.9 5 Sudoeste 21 Sudoeste -- -- -- 41
2018-09-05 18:00:00 29 5 Sudoeste 23 Oeste -- -- -- 42
2018-09-05 17:00:00 28.7 6 Sudoeste 24 Sudoeste -- -- -- 44
2018-09-05 16:00:00 28.3 6 Sudoeste 20 Noroeste -- -- -- 45
2018-09-05 15:00:00 27.8 7 Oeste 21 Noroeste -- -- -- 47
2018-09-05 14:00:00 25.7 4 Sudoeste 14 Sudoeste -- -- -- 52
2018-09-05 13:00:00 24.3 5 Oeste 16 Sudoeste -- -- -- 57
2018-09-05 12:00:00 22.8 4 Oeste 13 Noroeste -- -- -- 64
2018-09-05 11:00:00 20.8 2 Sudoeste 10 Sudoeste -- -- -- 72
2018-09-05 10:00:00 19.1 0 Calma 12 Oeste -- -- -- 80
2018-09-05 09:00:00 18.2 2 Sudoeste 8 Sudoeste -- -- -- 82
2018-09-05 08:00:00 17.7 0 Calma 8 Oeste -- -- -- 81
2018-09-05 07:00:00 18.1 3 Oeste 8 Sudoeste -- -- -- 79
2018-09-05 06:00:00 18.7 3 Sudoeste 10 Sudoeste -- -- -- 77
2018-09-05 05:00:00 19.4 3 Sudoeste 15 Noroeste -- -- -- 74
2018-09-05 04:00:00 20.2 5 Oeste 16 Oeste -- -- -- 70
2018-09-05 03:00:00 21 5 Sudoeste 19 Sudoeste -- -- -- 67
2018-09-05 02:00:00 21.7 4 Sudoeste 15 Sudoeste -- -- -- 61
2018-09-05 01:00:00 22.6 3 Sudoeste 17 Oeste -- -- -- 57
2018-09-05 00:00:00 23.2 2 Sudoeste 14 Oeste -- -- -- 55
2018-09-04 23:00:00 24.1 3 Sudoeste 12 Noroeste -- -- -- 52
2018-09-04 22:00:00 25 3 Oeste 12 Oeste -- -- -- 49
2018-09-04 21:00:00 26.4 5 Oeste 18 Oeste -- -- -- 45
2018-09-04 20:00:00 27.9 8 Oeste 21 Oeste -- -- -- 42
2018-09-04 19:00:00 29.4 5 Sudoeste 24 Oeste -- -- -- 39
2018-09-04 18:00:00 30.7 12 Oeste 22 Oeste -- -- -- 37
2018-09-04 17:00:00 30.7 5 Oeste 21 Oeste -- -- -- 38
2018-09-04 16:00:00 30.5 6 Sudoeste 21 Oeste -- -- -- 38
2018-09-04 15:00:00 28.9 4 Sudoeste 13 Noroeste -- -- -- 45
2018-09-04 14:00:00 26.3 3 Nordeste 11 Sudeste -- -- -- 52
2018-09-04 13:00:00 25.2 5 Este 11 Sudeste -- -- -- 60
2018-09-04 12:00:00 22.6 0 Calma 6 Este -- -- -- 67
2018-09-04 11:00:00 20.1 0 Calma 6 Sudoeste -- -- -- 74
2018-09-04 10:00:00 19.5 0 Calma 9 Oeste -- -- -- 79
2018-09-04 09:00:00 19.3 2 Sudoeste 10 Oeste -- -- -- 77
2018-09-04 08:00:00 19.2 2 Sudoeste 11 Sudoeste -- -- -- 78
2018-09-04 07:00:00 18.9 3 Sudoeste 12 Sudoeste -- -- -- 79
2018-09-04 06:00:00 18.5 3 Sudoeste 14 Sudoeste -- -- -- 80
2018-09-04 05:00:00 19.1 3 Sudoeste 14 Sudoeste -- -- -- 77
2018-09-04 04:00:00 19.9 4 Sudoeste 18 Oeste -- -- -- 72
2018-09-04 03:00:00 20.8 3 Sudoeste 18 Sur -- -- -- 67
2018-09-04 02:00:00 21.8 4 Sudoeste 13 Sudoeste -- -- -- 63
2018-09-04 01:00:00 22.7 4 Sudoeste 23 Sudoeste -- -- -- 60
2018-09-04 00:00:00 23.7 5 Sudoeste 15 Sudoeste -- -- -- 57
2018-09-03 23:00:00 24.7 5 Sudoeste 21 Sudoeste -- -- -- 54
2018-09-03 22:00:00 25.7 4 Sudoeste 23 Sudoeste -- -- -- 52
2018-09-03 21:00:00 27.5 5 Oeste 24 Sudoeste -- -- -- 47
2018-09-03 20:00:00 29.9 8 Sudoeste 30 Oeste -- -- -- 42
2018-09-03 19:00:00 32.5 7 Oeste 29 Oeste -- -- -- 33
2018-09-03 18:00:00 33.8 10 Oeste 31 Noroeste -- -- -- 30
2018-09-03 17:00:00 33.8 12 Oeste 27 Oeste -- -- -- 32
2018-09-03 16:00:00 32.9 6 Sudoeste 20 Oeste -- -- -- 40
2018-09-03 15:00:00 31.7 5 Sudoeste 14 Oeste -- -- -- 43
2018-09-03 14:00:00 29 0 Calma 8 Oeste -- -- -- 55
2018-09-03 13:00:00 28.4 2 Sudeste 9 Este -- -- -- 56
2018-09-03 12:00:00 27.9 4 Este 10 Sudeste -- -- -- 59
2018-09-03 11:00:00 24.6 3 Este 10 Este -- -- -- 70
2018-09-03 10:00:00 23.5 3 Oeste 9 Noroeste -- -- -- 74
2018-09-03 09:00:00 22.7 2 Sudoeste 8 Oeste -- -- -- 77
2018-09-03 08:00:00 22 0 Calma 10 Noroeste -- -- -- 78
2018-09-03 07:00:00 22.3 4 Sudoeste 20 Sur -- -- -- 77
2018-09-03 06:00:00 23 5 Sudoeste 21 Noroeste -- -- -- 75
2018-09-03 05:00:00 24.1 7 Sudoeste 28 Oeste -- -- -- 67
2018-09-03 04:00:00 26.1 7 Sudoeste 21 Sudoeste -- -- -- 59
2018-09-03 03:00:00 27.6 4 Sudoeste 23 Noroeste -- -- -- 48
2018-09-03 02:00:00 28.9 6 Sudoeste 21 Sudoeste -- -- -- 41
2018-09-03 01:00:00 30.1 4 Oeste 17 Oeste -- -- -- 37
2018-09-03 00:00:00 30.2 4 Oeste 12 Oeste -- -- -- 34
2018-09-02 23:00:00 30.2 3 Oeste 13 Oeste -- -- -- 33
2018-09-02 22:00:00 31.5 2 Este 5 Sudeste -- -- -- 31
2018-09-02 21:00:00 32.6 0 Calma -- -- -- -- -- 28
2018-09-02 20:00:00 34.9 0 Calma 8 Noroeste -- -- -- 27
2018-09-02 19:00:00 37.2 0 Calma 9 Noroeste -- -- -- 24
2018-09-02 18:00:00 38.8 3 Oeste 12 Sudoeste -- -- -- 22
2018-09-02 17:00:00 38.8 4 Sudeste 10 Sudeste -- -- -- 24
2018-09-02 16:00:00 38.6 3 Sudeste 12 Sudeste -- -- -- 25
2018-09-02 15:00:00 37.1 2 Sudeste 10 Este -- -- -- 28
2018-09-02 14:00:00 35 3 Sudeste 10 Este -- -- -- 33
2018-09-02 13:00:00 34.2 3 Nordeste 9 Nordeste -- -- -- 34
2018-09-02 12:00:00 31.1 4 Este 9 Sudeste -- -- -- 42
2018-09-02 11:00:00 27.7 4 Sudeste 9 Este -- -- -- 50
2018-09-02 10:00:00 24.8 0 Calma 4 Sudoeste -- -- -- 54
2018-09-02 09:00:00 23.4 0 Calma 9 Norte -- -- -- 55
2018-09-02 08:00:00 23.2 6 Nordeste 11 Nordeste -- -- -- 52
2018-09-02 07:00:00 23.3 0 Calma 6 Norte -- -- -- 49
2018-09-02 06:00:00 23.4 0 Calma 8 Nordeste -- -- -- 50
2018-09-02 05:00:00 24.1 0 Calma 6 Nordeste -- -- -- 50
2018-09-02 04:00:00 24.9 4 Norte 7 Nordeste -- -- -- 47
2018-09-02 03:00:00 25.7 0 Calma 5 Este -- -- -- 46
2018-09-02 02:00:00 26.7 0 Calma 7 Noroeste -- -- -- 44
2018-09-02 01:00:00 28.1 0 Calma 7 Sudoeste -- -- -- 41
2018-09-02 00:00:00 29.8 3 Oeste 10 Oeste -- -- -- 37
2018-09-01 23:00:00 31.2 5 Oeste 15 Noroeste -- -- -- 32
2018-09-01 22:00:00 32.3 4 Oeste 16 Sudoeste -- -- -- 30
2018-09-01 21:00:00 33.5 4 Sudoeste 16 Sudoeste -- -- -- 32
2018-09-01 20:00:00 35 0 Calma 7 Oeste -- -- -- 28
2018-09-01 19:00:00 37.3 0 Calma 10 Sudoeste -- -- -- 26
2018-09-01 18:00:00 39.2 4 Sudoeste 15 Nordeste -- -- -- 23
2018-09-01 17:00:00 40.4 6 Nordeste 18 Este -- -- -- 22
2018-09-01 16:00:00 38.5 4 Sudoeste 16 Este -- -- -- 23
2018-09-01 15:00:00 38 4 Sudeste 23 Sudeste -- -- -- 28
2018-09-01 14:00:00 35.9 5 Este 15 Este -- -- -- 31
2018-09-01 13:00:00 33.9 4 Sudeste 15 Sudeste -- -- -- 39
2018-09-01 12:00:00 31.3 3 Sudeste 12 Nordeste -- -- -- 41
2018-09-01 11:00:00 27.5 4 Nordeste 10 Norte -- -- -- 49
2018-09-01 10:00:00 24.2 0 Calma 7 Este -- -- -- 55
2018-09-01 09:00:00 22.2 0 Calma 2 Sur -- -- -- 61
2018-09-01 08:00:00 22.5 0 Calma 4 Oeste -- -- -- 58
2018-09-01 07:00:00 23 0 Calma 3 Norte -- -- -- 56
2018-09-01 06:00:00 23.4 0 Calma 5 Norte -- -- -- 54
2018-09-01 05:00:00 24.2 0 Calma 2 Sudeste -- -- -- 52
2018-09-01 04:00:00 25.3 0 Calma 12 Noroeste -- -- -- 48
2018-09-01 03:00:00 26.4 3 Oeste 8 Noroeste -- -- -- 45
2018-09-01 02:00:00 26.8 0 Calma 4 Sudoeste -- -- -- 44
2018-09-01 01:00:00 27.7 0 Calma 8 Noroeste -- -- -- 41
2018-09-01 00:00:00 28.9 3 Sudeste 11 Este -- -- -- 39
2018-08-31 23:00:00 29.2 5 Este 13 Este -- -- -- 35
2018-08-31 22:00:00 30.4 2 Norte 2 Noroeste -- -- -- 33
2018-08-31 21:00:00 31.5 0 Calma 8 Este -- -- -- 31
2018-08-31 20:00:00 33.6 0 Calma 7 Este -- -- -- 30
2018-08-31 19:00:00 36.3 4 Sudeste 11 Sudeste -- -- -- 27
2018-08-31 18:00:00 38.6 3 Sur 17 Este -- -- -- 25
2018-08-31 17:00:00 38.9 6 Nordeste 18 Este -- -- -- 23
2018-08-31 16:00:00 37.4 3 Sudeste 21 Este -- -- -- 27
2018-08-31 15:00:00 36.8 4 Este 16 Sudeste -- -- -- 32
2018-08-31 14:00:00 34.6 5 Este 13 Este -- -- -- 36
2018-08-31 13:00:00 32.8 4 Este 14 Este -- -- -- 41
2018-08-31 12:00:00 29.7 3 Sur 10 Sudeste -- -- -- 50
2018-08-31 11:00:00 26.3 3 Sudeste 11 Este -- -- -- 54
2018-08-31 10:00:00 24.2 2 Sudeste 5 Este -- -- -- 64
2018-08-31 09:00:00 22.3 0 Calma 3 Sudoeste -- -- -- 66
2018-08-31 08:00:00 21.7 0 Calma 2 Norte -- -- -- 65
2018-08-31 07:00:00 22.7 0 Calma 6 Oeste -- -- -- 61
2018-08-31 06:00:00 22.5 0 Calma 4 Sudeste -- -- -- 59
2018-08-31 05:00:00 23 0 Calma 2 Oeste -- -- -- 58
2018-08-31 04:00:00 23.7 0 Calma 3 Noroeste -- -- -- 54
2018-08-31 03:00:00 24.4 0 Calma 6 Oeste -- -- -- 52
2018-08-31 02:00:00 25.2 0 Calma 2 Sudeste -- -- -- 51
2018-08-31 01:00:00 25.9 0 Calma 4 Sudeste -- -- -- 47
2018-08-31 00:00:00 26.1 0 Calma 3 Este -- -- -- 48
2018-08-30 23:00:00 27.2 0 Calma 4 Este -- -- -- 45
2018-08-30 22:00:00 28.1 0 Calma 9 Sur -- -- -- 46
2018-08-30 21:00:00 30.5 2 Sudoeste 9 Oeste -- -- -- 39
2018-08-30 20:00:00 32.7 2 Sudoeste 14 Oeste -- -- -- 33
2018-08-30 19:00:00 34.4 4 Sudoeste 13 Oeste -- -- -- 31
2018-08-30 18:00:00 36 3 Sudoeste 15 Oeste -- -- -- 29
2018-08-30 17:00:00 35.8 4 Sur 16 Oeste -- -- -- 29
2018-08-30 16:00:00 35.8 3 Sur 12 Norte -- -- -- 31
2018-08-30 15:00:00 35.1 4 Este 10 Este -- -- -- 33
2018-08-30 14:00:00 32.9 3 Oeste 13 Sudeste -- -- -- 36
2018-08-30 13:00:00 31.9 4 Nordeste 15 Sudeste -- -- -- 40
2018-08-30 12:00:00 29 5 Nordeste 10 Este -- -- -- 49
2018-08-30 11:00:00 25.4 4 Este 13 Este -- -- -- 54
2018-08-30 10:00:00 22.7 5 Nordeste 9 Nordeste -- -- -- 59
2018-08-30 09:00:00 20.8 0 Calma 5 Sudeste -- -- -- 65
2018-08-30 08:00:00 20.2 2 Sudeste 7 Este -- -- -- 66
2018-08-30 07:00:00 21.3 4 Sudeste 10 Oeste -- -- -- 62
2018-08-30 06:00:00 22.3 4 Oeste 12 Oeste -- -- -- 59
2018-08-30 05:00:00 22.8 3 Oeste 15 Oeste -- -- -- 57
2018-08-30 04:00:00 22.6 0 Calma 11 Sudoeste -- -- -- 55
2018-08-30 03:00:00 24 3 Sudoeste 11 Sudoeste -- -- -- 50
2018-08-30 02:00:00 25 3 Sudoeste 11 Oeste -- -- -- 42
2018-08-30 01:00:00 25.5 2 Sudoeste 8 Oeste -- -- -- 42
2018-08-30 00:00:00 26.4 2 Oeste 9 Sudoeste -- -- -- 42
2018-08-29 23:00:00 26.7 0 Calma 9 Noroeste -- -- -- 41
2018-08-29 22:00:00 28.1 2 Oeste 7 Oeste -- -- -- 38
2018-08-29 21:00:00 29.8 0 Calma 13 Oeste -- -- -- 33
2018-08-29 20:00:00 32 3 Sudoeste 15 Sudoeste -- -- -- 29
2018-08-29 19:00:00 33.7 4 Sudoeste 14 Sudoeste -- -- -- 23
2018-08-29 18:00:00 35.8 4 Sudoeste 12 Oeste -- -- -- 22
2018-08-29 17:00:00 35.7 4 Sur 17 Sur -- -- -- 24
2018-08-29 16:00:00 35 3 Sudoeste 13 Este -- -- -- 24
2018-08-29 15:00:00 33.8 4 Sur 13 Oeste -- -- -- 33
2018-08-29 14:00:00 31.3 5 Noroeste 14 Noroeste -- -- -- 34
2018-08-29 13:00:00 30.1 3 Sudoeste 10 Sudoeste -- -- -- 40
2018-08-29 12:00:00 27.6 2 Sur 9 Noroeste -- -- -- 51
2018-08-29 11:00:00 24.8 2 Sur 6 Sudoeste -- -- -- 57
2018-08-29 10:00:00 23.4 3 Sudoeste 10 Oeste -- -- -- 59
2018-08-29 09:00:00 22.2 2 Sudoeste 10 Noroeste -- -- -- 63
2018-08-29 08:00:00 21.8 0 Calma 9 Oeste -- -- -- 63
2018-08-29 07:00:00 22.4 3 Sudoeste 10 Sudoeste -- -- -- 60
2018-08-29 06:00:00 23 2 Sudoeste 9 Oeste -- -- -- 57
2018-08-29 05:00:00 23.9 2 Sudoeste 14 Sudoeste -- -- -- 59
2018-08-29 04:00:00 24.8 4 Sudoeste 16 Oeste -- -- -- 58
2018-08-29 03:00:00 25.7 5 Oeste 19 Sudoeste -- -- -- 56
2018-08-29 02:00:00 26.8 6 Sudoeste 24 Oeste -- -- -- 52
2018-08-29 01:00:00 27.5 3 Sudoeste 18 Sudoeste -- -- -- 50
2018-08-29 00:00:00 28.8 5 Sudoeste 18 Oeste -- -- -- 41
2018-08-28 23:00:00 29.6 3 Sudoeste 19 Sudoeste -- -- -- 41
2018-08-28 22:00:00 30.9 3 Sudoeste 10 Sudoeste -- -- -- 39
2018-08-28 21:00:00 32.7 3 Sudoeste 17 Sudoeste -- -- -- 34
2018-08-28 20:00:00 34.6 6 Oeste 24 Noroeste -- -- -- 31
2018-08-28 19:00:00 35.8 9 Oeste 22 Noroeste -- -- -- 30
2018-08-28 18:00:00 37.4 6 Oeste 22 Sudoeste -- -- -- 28
2018-08-28 17:00:00 37.7 4 Sudoeste 18 Sudoeste -- -- -- 28
2018-08-28 16:00:00 37.8 4 Sudoeste 17 Oeste -- -- -- 25
2018-08-28 15:00:00 36.4 4 Norte 11 Oeste -- -- -- 27
2018-08-28 14:00:00 34.1 3 Noroeste 10 Oeste -- -- -- 34
2018-08-28 13:00:00 32.2 3 Sudoeste 14 Noroeste -- -- -- 38
2018-08-28 12:00:00 29.7 3 Sudoeste 12 Oeste -- -- -- 48
2018-08-28 11:00:00 27.2 3 Oeste 17 Noroeste -- -- -- 53
2018-08-28 10:00:00 25.1 5 Oeste 17 Oeste -- -- -- 59
2018-08-28 09:00:00 24 6 Oeste 14 Oeste -- -- -- 59
2018-08-28 08:00:00 24 0 Calma 6 Sudeste -- -- -- 56
2018-08-28 07:00:00 24.4 0 Calma 4 Este -- -- -- 53
2018-08-28 06:00:00 25.9 0 Calma 9 Oeste -- -- -- 47
2018-08-28 05:00:00 26.7 4 Oeste 14 Oeste -- -- -- 44
2018-08-28 04:00:00 27 4 Oeste 11 Oeste -- -- -- 46
2018-08-28 03:00:00 27.2 0 Calma 9 Oeste -- -- -- 42
2018-08-28 02:00:00 28.8 4 Oeste 18 Noroeste -- -- -- 37
2018-08-28 01:00:00 29.7 6 Oeste 16 Oeste -- -- -- 33
2018-08-28 00:00:00 30.5 4 Sudoeste 12 Oeste -- -- -- 26
2018-08-27 23:00:00 31.4 2 Nordeste 16 Sudeste -- -- -- 24
2018-08-27 22:00:00 33.2 4 Este 26 Este -- -- -- 24
2018-08-27 21:00:00 34.1 2 Sudoeste 23 Sudoeste -- -- -- 23
2018-08-27 20:00:00 35.5 4 Sudoeste 13 Sudoeste -- -- -- 21
2018-08-27 19:00:00 37.1 5 Oeste 14 Oeste -- -- -- 17
2018-08-27 18:00:00 38.5 2 Oeste 11 Norte -- -- -- 19
2018-08-27 17:00:00 40.5 6 Noroeste 15 Noroeste -- -- -- 16
2018-08-27 16:00:00 40.1 6 Oeste 17 Sur -- -- -- 17
2018-08-27 15:00:00 39 4 Sur 10 Noroeste -- -- -- 22
2018-08-27 14:00:00 37.6 3 Nordeste 9 Este -- -- -- 25
2018-08-27 13:00:00 35.8 2 Sur 12 Sudeste -- -- -- 30
2018-08-27 12:00:00 32.4 5 Nordeste 13 Nordeste -- -- -- 38
2018-08-27 11:00:00 27.8 3 Sudeste 9 Sudeste -- -- -- 45
2018-08-27 10:00:00 24.9 4 Este 11 Este -- -- -- 47
2018-08-27 09:00:00 22.7 5 Nordeste 11 Nordeste -- -- -- 44
2018-08-27 08:00:00 22.9 6 Nordeste 17 Nordeste -- -- -- 38
2018-08-27 07:00:00 23 6 Nordeste 12 Nordeste -- -- -- 37
2018-08-27 06:00:00 23.1 5 Nordeste 10 Nordeste -- -- -- 38
2018-08-27 05:00:00 23.2 0 Calma 4 Oeste -- -- -- 40
2018-08-27 04:00:00 24.2 0 Calma 4 Nordeste -- -- -- 38
2018-08-27 03:00:00 24.8 0 Calma 3 Norte -- -- -- 37
2018-08-27 02:00:00 25.6 0 Calma 4 Sudeste -- -- -- 35
2018-08-27 01:00:00 26.6 0 Calma 3 Este -- -- -- 35
2018-08-27 00:00:00 27.9 0 Calma 2 Oeste -- -- -- 32
2018-08-26 23:00:00 28.7 0 Calma 5 Oeste -- -- -- 29
2018-08-26 22:00:00 29.9 2 Oeste 5 Oeste -- -- -- 28
2018-08-26 21:00:00 32.2 2 Oeste 13 Sudoeste -- -- -- 25
2018-08-26 20:00:00 35.3 4 Sudoeste 15 Oeste -- -- -- 22
2018-08-26 19:00:00 37 5 Oeste 16 Noroeste -- -- -- 18
2018-08-26 18:00:00 38.4 5 Sudoeste 21 Sudoeste -- -- -- 18
2018-08-26 17:00:00 38.4 6 Sudoeste 26 Oeste -- -- -- 20
2018-08-26 16:00:00 38.4 8 Oeste 24 Noroeste -- -- -- 20
2018-08-26 15:00:00 37.7 4 Sudoeste 12 Sudoeste -- -- -- 22
2018-08-26 14:00:00 36 4 Sudeste 14 Sudeste -- -- -- 29
2018-08-26 13:00:00 33.8 2 Sur 10 Sudeste -- -- -- 30
2018-08-26 12:00:00 30.6 3 Sudeste 10 Este -- -- -- 37
2018-08-26 11:00:00 26.6 3 Sudeste 10 Sur -- -- -- 45
2018-08-26 10:00:00 24 4 Este 10 Nordeste -- -- -- 48
2018-08-26 09:00:00 21.5 3 Norte 5 Norte -- -- -- 49
2018-08-26 08:00:00 20.6 0 Calma 4 Norte -- -- -- 48
2018-08-26 07:00:00 21.1 0 Calma 2 Nordeste -- -- -- 49
2018-08-26 06:00:00 22 0 Calma 3 Sudeste -- -- -- 48
2018-08-26 05:00:00 23 0 Calma 2 Oeste -- -- -- 45
2018-08-26 04:00:00 24.6 0 Calma 8 Nordeste -- -- -- 43
2018-08-26 03:00:00 24.6 0 Calma 6 Oeste -- -- -- 41
2018-08-26 02:00:00 26.1 4 Oeste 9 Oeste -- -- -- 37
2018-08-26 01:00:00 27.2 3 Oeste 8 Noroeste -- -- -- 34
2018-08-26 00:00:00 28.5 3 Oeste 6 Oeste -- -- -- 31
2018-08-25 23:00:00 28.4 3 Oeste 5 Noroeste -- -- -- 31
2018-08-25 22:00:00 29.9 0 Calma 4 Oeste -- -- -- 29
2018-08-25 21:00:00 32.2 0 Calma 14 Oeste -- -- -- 27
2018-08-25 20:00:00 35 4 Sudoeste 17 Oeste -- -- -- 25
2018-08-25 19:00:00 36.2 5 Sudoeste 19 Sudoeste -- -- -- 24
2018-08-25 18:00:00 38.1 4 Sudoeste 16 Oeste -- -- -- 22
2018-08-25 17:00:00 38.6 5 Oeste 19 Sudoeste -- -- -- 23
2018-08-25 16:00:00 38 5 Sudoeste 18 Sudoeste -- -- -- 23
2018-08-25 15:00:00 36.7 5 Oeste 14 Sudoeste -- -- -- 27
2018-08-25 14:00:00 34.8 4 Sudoeste 15 Sudoeste -- -- -- 30
2018-08-25 13:00:00 33.4 3 Sudoeste 14 Oeste -- -- -- 32
2018-08-25 12:00:00 30.4 2 Sudoeste 7 Sudoeste -- -- -- 37
2018-08-25 11:00:00 26.7 2 Sudeste 6 Este -- -- -- 44
2018-08-25 10:00:00 24.3 2 Sudeste 6 Nordeste -- -- -- 50
2018-08-25 09:00:00 22.6 3 Nordeste 10 Nordeste -- -- -- 52
2018-08-25 08:00:00 22.4 5 Nordeste 9 Nordeste -- -- -- 48
2018-08-25 07:00:00 23.2 0 Calma 3 Norte -- -- -- 48
2018-08-25 06:00:00 24.1 0 Calma 9 Oeste -- -- -- 46
2018-08-25 05:00:00 24.7 3 Oeste 9 Noroeste -- -- -- 43
2018-08-25 04:00:00 25.8 0 Calma 12 Sudoeste -- -- -- 43
2018-08-25 03:00:00 26.4 3 Oeste 14 Noroeste -- -- -- 40
2018-08-25 02:00:00 27.1 4 Oeste 10 Oeste -- -- -- 37
2018-08-25 01:00:00 26.7 2 Sudoeste 5 Oeste -- -- -- 40
2018-08-25 00:00:00 27.9 2 Oeste 5 Noroeste -- -- -- 36